METAR AND TAF INFORMATION
METAR FOR LIME
ADDS - METARS form results

(2110 UTC 14 December 2018)
Data provider http://aviationweather.gov/metar/data/
 
METAR text: LIME 142050Z 02004KT CAVOK M02/M05 Q1018 NOSIG
Conditions at: LIME (BERGAMO/ORIO SER, IT) observed 2050 UTC 14 December 2018
Temperature: -2.0°C (28°F)
Dewpoint: -5.0°C (23°F) [RH = 80%]
Pressure (altimeter): 30.06 inches Hg (1018.0 mb)
Winds: from the NNE (20 degrees) at 5 MPH (4 knots; 2.1 m/s)
Visibility: 6 or more miles (10+ km)
Ceiling: ceiling and visibility are OK
Clouds: unknown
Weather: no significant weather observed at this time

METAR text: LIME 142020Z 36005KT CAVOK M02/M04 Q1018 NOSIG
Conditions at: LIME (BERGAMO/ORIO SER, IT) observed 2020 UTC 14 December 2018
Temperature: -2.0°C (28°F)
Dewpoint: -4.0°C (25°F) [RH = 86%]
Pressure (altimeter): 30.06 inches Hg (1018.0 mb)
Winds: from the N (360 degrees) at 6 MPH (5 knots; 2.6 m/s)
Visibility: 6 or more miles (10+ km)
Ceiling: ceiling and visibility are OK
Clouds: unknown
Weather: no significant weather observed at this time

Forecast for: LIME (BERGAMO/ORIO SER, IT)
Text: TAF LIME 141700Z 1418/1518 VRB05KT CAVOK
Forecast period: 1800 UTC 14 December 2018 to 1800 UTC 15 December 2018
Forecast type: FROM: standard forecast or significant change
Winds: variable direction winds at 6 MPH (5 knots; 2.6 m/s)
Visibility: 6 or more miles 10+ km)
Ceiling: unknown
Clouds: missing
Weather: NSW  (no significant weather)

 AIRPORT MAP

 RUNWAY INFORMATION
Runway 10 Runway length 9636 ft Runway width 148 ft
Runway elevation 779 ft Runway displaced threshold 312 ft Runway heading 105
Runway 28 Runway length 9636 ft Runway width 148 ft
Runway elevation 754 ft Runway displaced threshold 427 ft Runway heading 285
Runway 12 Runway length 2552 ft Runway width 59 ft
Runway elevation 782 ft Runway displaced threshold 210 ft Runway heading 121
Runway 30 Runway length 2552 ft Runway width 59 ft
Runway elevation 782 ft Runway displaced threshold 328 ft Runway heading 301

 AIRPORT FREQUENCIES
Type APP Name MILANO APP Frequency 126.75 MHZ
Type ATIS Name ATIS Frequency 112.6 MHZ
Type GND Name ORIO GND Frequency 120.5 MHZ
Type TWR Name ORIO TWR Frequency 126.5 MHZ

 AIRPORT NEAR NAVIGATION AIDS
Type VOR-DME Name Orio Al Serio Frequency 112600 KHZ
Type NDB Name Orio Al Serio Frequency 377 KHZ



Powered by Virtual Airlines Manager [v2.6.2]